KSYR/SYR METAR and TAF weather

Enter ICAO airport designator
Station Type Date Time Source
KSYR METAR 2022/01/19 18:54 UTC NOAA

KSYR 191854Z 21011KT 10SM OVC035 06/M03 A2977 RMK AO2 RAB06E15 SLP082 P0000 T00561028


Station Type Date Time Source
KSYR Decoded METAR 2022/01/19 18:54 UTC NOAA

SYRACUSE HANCOCK INTERNATIONAL AIRPORT , NY, United States (KSYR) 43-07N 76-06W 127M
Jan 19, 2022 - 01:54 PM EST / 2022.01.19 1854 UTC
Wind: from the SSW (210 degrees) at 13 MPH (11 KT):0
Visibility: 10 mile(s):0
Sky conditions: overcast
Precipitation last hour: A trace
Temperature: 42.1 F (5.6 C)
Dew Point: 27.0 F (-2.8 C)
Relative Humidity: 54%
Pressure (altimeter): 29.77 in. Hg (1008 hPa)
ob: KSYR 191854Z 21011KT 10SM OVC035 06/M03 A2977 RMK AO2 RAB06E15 SLP082 P0000 T00561028
cycle: 19

Station Type Date Time Source
KSYR TAF 2022/01/19 18:30 UTC NOAA

TAF KSYR 191727Z 1918/2018 20012G21KT P6SM OVC035
FM192000 22007KT P6SM OVC030
FM192300 26010G16KT P6SM -RASN BKN024
FM200200 29011G17KT 5SM -SN OVC022
FM200700 31012G23KT 2SM -SN OVC015
FM201300 30009KT 4SM -SN OVC025

Example: see airport list